Time;durP1;ratioP1;P1;durP2;ratioP2;P2;SDS_P1;SDS_P2;PMS_P1;PMS_P2;Temp;Humidity;BMP_temperature;BMP_pressure;BME280_temperature;BME280_humidity;BME280_pressure;Samples;Min_cycle;Max_cycle;Signal;HPM_P1;HPM_P2
2020/12/01 00:00:28;;;;;;;38.67;16.60;;;39.00;2201.60;;;;;;5098568;28;20314;-71
2020/12/01 00:02:54;;;;;;;73.30;30.35;;;39.10;2201.60;;;;;;5098565;28;20089;-69
2020/12/01 00:05:21;;;;;;;36.30;18.17;;;39.20;2201.60;;;;;;5098422;28;20024;-69
2020/12/01 00:07:47;;;;;;;34.17;17.48;;;39.20;2201.60;;;;;;5098138;28;20016;-71
2020/12/01 00:10:14;;;;;;;33.13;15.18;;;39.30;2201.60;;;;;;5098550;28;20028;-67
2020/12/01 00:12:45;;;;;;;43.97;20.35;;;39.20;2201.60;;;;;;5098288;28;20024;-69
2020/12/01 00:15:14;;;;;;;30.95;15.90;;;39.30;2201.60;;;;;;5112102;28;20029;-70
2020/12/01 00:17:40;;;;;;;33.83;16.52;;;39.30;2201.60;;;;;;5100537;28;20024;-69
2020/12/01 00:20:09;;;;;;;29.77;14.23;;;39.20;2201.60;;;;;;5097843;28;20345;-67
2020/12/01 00:22:35;;;;;;;28.90;14.93;;;39.30;2201.60;;;;;;5098456;28;20101;-69
2020/12/01 00:25:01;;;;;;;28.52;14.57;;;39.20;2201.60;;;;;;5098316;28;20028;-68
2020/12/01 00:27:27;;;;;;;32.97;17.00;;;39.20;2201.60;;;;;;5098231;28;20027;-69
2020/12/01 00:29:53;;;;;;;29.40;16.50;;;39.20;2201.60;;;;;;5098035;28;20028;-68
2020/12/01 00:32:19;;;;;;;22.05;12.23;;;39.20;2201.60;;;;;;5097624;28;20032;-68
2020/12/01 00:34:45;;;;;;;21.75;12.07;;;39.20;2201.60;;;;;;5097788;28;20020;-71
2020/12/01 00:37:11;;;;;;;19.30;9.95;;;39.20;2201.60;;;;;;5097381;28;20027;-68
2020/12/01 00:39:37;;;;;;;21.63;11.43;;;39.20;2201.60;;;;;;5098096;28;20024;-68
2020/12/01 00:42:02;;;;;;;21.52;11.07;;;39.30;2201.60;;;;;;5097556;28;20036;-68
2020/12/01 00:44:28;;;;;;;22.23;10.13;;;39.30;2201.60;;;;;;5097528;28;20413;-71
2020/12/01 00:46:54;;;;;;;18.05;10.25;;;39.30;2201.60;;;;;;5097671;28;20028;-69
2020/12/01 00:49:20;;;;;;;18.50;9.20;;;39.30;2201.60;;;;;;5097482;28;20314;-67
2020/12/01 00:51:49;;;;;;;17.75;10.15;;;39.30;2201.60;;;;;;5097532;28;20059;-70
2020/12/01 00:54:15;;;;;;;;;;;64.00;2201.60;;;;;;5098015;28;20024;-70
2020/12/01 00:56:40;;;;;;;16.38;9.02;;;64.00;2201.60;;;;;;5097073;28;19911;-69
2020/12/01 00:59:06;;;;;;;19.40;8.98;;;64.10;2201.60;;;;;;5097962;28;20031;-69
2020/12/01 01:01:32;;;;;;;18.42;9.50;;;64.00;2201.60;;;;;;5097135;28;20034;-69
2020/12/01 01:03:58;;;;;;;19.92;11.48;;;64.00;2201.60;;;;;;5097252;28;20024;-70
2020/12/01 01:06:23;;;;;;;18.52;10.18;;;39.30;2201.60;;;;;;5097830;28;20073;-68
2020/12/01 01:08:49;;;;;;;17.83;9.95;;;39.30;2201.60;;;;;;5097081;28;20024;-68
2020/12/01 01:11:15;;;;;;;18.65;10.07;;;64.10;2201.60;;;;;;5097669;28;20020;-69
2020/12/01 01:13:41;;;;;;;18.75;9.88;;;64.10;2201.60;;;;;;5097395;28;20054;-69
2020/12/01 01:16:08;;;;;;;18.88;10.45;;;64.10;2201.60;;;;;;5096965;28;20023;-68
2020/12/01 01:18:34;;;;;;;23.02;11.20;;;64.10;2201.60;;;;;;5097644;28;20106;-70
2020/12/01 01:21:00;;;;;;;21.13;11.85;;;64.00;2201.60;;;;;;5097163;28;20131;-69
2020/12/01 01:23:26;;;;;;;26.98;14.23;;;64.00;2201.60;;;;;;5097610;28;20093;-70
2020/12/01 01:25:52;;;;;;;19.23;9.65;;;64.10;2201.60;;;;;;5096943;28;20444;-69
2020/12/01 01:28:18;;;;;;;37.08;18.02;;;64.10;2201.60;;;;;;5097078;28;20063;-70
2020/12/01 01:30:44;;;;;;;22.23;10.15;;;64.10;2201.60;;;;;;5097575;28;20024;-71
2020/12/01 01:33:11;;;;;;;16.48;8.30;;;64.10;2201.60;;;;;;5097171;28;20035;-69
2020/12/01 01:35:37;;;;;;;19.10;9.25;;;64.20;2201.60;;;;;;5096742;28;20421;-68
2020/12/01 01:38:05;;;;;;;16.85;8.85;;;64.20;2201.60;;;;;;5096950;28;20020;-69
2020/12/01 01:40:31;;;;;;;16.92;8.25;;;64.20;2201.60;;;;;;5097399;28;20020;-70
2020/12/01 01:42:57;;;;;;;17.55;8.85;;;64.20;2201.60;;;;;;5096880;28;20110;-70
2020/12/01 01:45:45;;;;;;;17.08;8.93;;;64.20;2201.60;;;;;;5096978;28;20024;-69
2020/12/01 01:48:33;;;;;;;15.95;8.60;;;64.10;2201.60;;;;;;5097483;28;20077;-67
2020/12/01 01:51:10;;;;;;;17.42;8.55;;;64.10;2201.60;;;;;;5096349;28;20387;-70
2020/12/01 01:53:42;;;;;;;16.48;8.30;;;64.10;2201.60;;;;;;5097361;28;20101;-68
2020/12/01 01:56:12;;;;;;;16.02;8.45;;;64.20;2201.60;;;;;;5096616;28;20024;-68
2020/12/01 01:58:42;;;;;;;18.50;9.52;;;64.30;2201.60;;;;;;5097018;28;20405;-68
2020/12/01 02:01:10;;;;;;;16.27;8.05;;;64.30;2201.60;;;;;;5096639;28;20020;-69
2020/12/01 02:03:53;;;;;;;19.38;9.93;;;64.30;2201.60;;;;;;5096825;28;20039;-69
2020/12/01 02:06:21;;;;;;;15.57;7.97;;;64.30;2201.60;;;;;;5100840;28;20028;-70
2020/12/01 02:08:51;;;;;;;19.40;9.18;;;64.40;2201.60;;;;;;5101130;28;20038;-68
2020/12/01 02:11:18;;;;;;;20.00;10.40;;;64.40;2201.60;;;;;;5100355;28;20028;-69
2020/12/01 02:14:05;;;;;;;26.48;13.32;;;64.50;2201.60;;;;;;5100727;28;20031;-70
2020/12/01 02:16:34;;;;;;;23.75;11.82;;;64.40;2201.60;;;;;;5100404;28;20028;-67
2020/12/01 02:19:00;;;;;;;20.70;10.57;;;64.20;2201.60;;;;;;5099964;28;20016;-69
2020/12/01 02:21:33;;;;;;;24.50;13.45;;;64.40;2201.60;;;;;;5100180;28;20143;-68
2020/12/01 02:24:01;;;;;;;21.60;11.82;;;64.30;2201.60;;;;;;5100385;28;20032;-69
2020/12/01 02:26:27;;;;;;;19.05;9.98;;;64.40;2201.60;;;;;;5100588;28;20028;-70
2020/12/01 02:28:53;;;;;;;16.52;9.07;;;64.30;2201.60;;;;;;5100683;28;20028;-68
2020/12/01 02:31:20;;;;;;;18.25;8.95;;;64.40;2201.60;;;;;;5100188;28;20069;-68
2020/12/01 02:33:45;;;;;;;19.92;10.60;;;64.50;2201.60;;;;;;5100737;28;20401;-69
2020/12/01 02:36:11;;;;;;;19.33;9.85;;;64.50;2201.60;;;;;;5099753;28;20047;-68
2020/12/01 02:38:37;;;;;;;24.65;12.40;;;64.50;2201.60;;;;;;5099777;28;20028;-69
2020/12/01 02:41:03;;;;;;;23.73;11.45;;;64.50;2201.60;;;;;;5100525;28;20061;-71
2020/12/01 02:43:29;;;;;;;20.02;10.00;;;64.60;2201.60;;;;;;5100336;28;20028;-69
2020/12/01 02:45:55;;;;;;;17.55;9.07;;;64.60;2201.60;;;;;;5100270;28;20069;-67
2020/12/01 02:48:21;;;;;;;18.25;9.05;;;64.60;2201.60;;;;;;5099781;28;20035;-68
2020/12/01 02:50:47;;;;;;;14.77;7.80;;;64.70;2201.60;;;;;;5100110;28;20024;-68
2020/12/01 02:53:12;;;;;;;13.30;7.55;;;64.60;2201.60;;;;;;5099832;28;20103;-68
2020/12/01 02:55:38;;;;;;;17.63;8.00;;;64.60;2201.60;;;;;;5100139;28;20020;-68
2020/12/01 02:58:04;;;;;;;16.50;9.23;;;64.70;2201.60;;;;;;5099658;28;20042;-70
2020/12/01 03:00:30;;;;;;;58.33;24.58;;;64.60;2201.60;;;;;;5099660;28;20020;-68
2020/12/01 03:02:55;;;;;;;35.58;18.52;;;64.50;2201.60;;;;;;5099406;28;20478;-69
2020/12/01 03:05:21;;;;;;;23.58;12.90;;;64.50;2201.60;;;;;;5081919;28;20028;-70
2020/12/01 03:07:47;;;;;;;23.65;13.23;;;64.50;2201.60;;;;;;5099263;28;20023;-70
2020/12/01 03:10:13;;;;;;;20.77;11.23;;;64.40;2201.60;;;;;;5099368;28;20031;-68
2020/12/01 03:12:38;;;;;;;22.33;13.45;;;64.50;2201.60;;;;;;5099110;28;20028;-70
2020/12/01 03:15:09;;;;;;;21.02;12.88;;;64.50;2201.60;;;;;;5098588;28;20418;-69
2020/12/01 03:17:35;;;;;;;22.35;13.25;;;64.60;2201.60;;;;;;5099857;28;20024;-67
2020/12/01 03:20:02;;;;;;;15.20;8.60;;;64.60;2201.60;;;;;;5099638;28;20073;-67
2020/12/01 03:22:27;;;;;;;16.75;9.02;;;64.50;2201.60;;;;;;5099676;28;20079;-68
2020/12/01 03:24:53;;;;;;;15.48;8.77;;;64.60;2201.60;;;;;;5099319;28;20067;-67
2020/12/01 03:27:19;;;;;;;16.60;8.82;;;64.60;2201.60;;;;;;5099231;28;20028;-69
2020/12/01 03:29:45;;;;;;;15.65;8.35;;;64.70;2201.60;;;;;;5099088;28;20417;-70
2020/12/01 03:32:10;;;;;;;14.98;7.75;;;64.60;2201.60;;;;;;5099469;28;20035;-67
2020/12/01 03:34:36;;;;;;;17.55;7.97;;;64.70;2201.60;;;;;;5099329;28;20031;-68
2020/12/01 03:37:02;;;;;;;14.30;7.55;;;64.80;2201.60;;;;;;5098883;28;20024;-70
2020/12/01 03:39:28;;;;;;;16.10;7.13;;;64.80;2201.60;;;;;;5099027;28;20024;-68
2020/12/01 03:41:53;;;;;;;18.17;8.32;;;64.80;2201.60;;;;;;5099113;28;20043;-70
2020/12/01 03:44:19;;;;;;;13.75;7.15;;;64.70;2201.60;;;;;;5098947;28;20024;-69
2020/12/01 03:46:45;;;;;;;13.55;7.30;;;64.80;2201.60;;;;;;5098702;28;20035;-70
2020/12/01 03:49:11;;;;;;;14.93;7.40;;;64.80;2201.60;;;;;;5098774;28;20432;-69
2020/12/01 03:51:37;;;;;;;15.23;7.55;;;64.80;2201.60;;;;;;5099077;28;20027;-68
2020/12/01 03:54:03;;;;;;;13.18;7.35;;;64.70;2201.60;;;;;;5098597;28;20016;-68
2020/12/01 03:56:29;;;;;;;16.05;6.40;;;64.60;2201.60;;;;;;5098558;28;20028;-68
2020/12/01 03:58:55;;;;;;;15.75;6.93;;;64.60;2201.60;;;;;;5098386;28;20030;-71
2020/12/01 04:01:21;;;;;;;12.43;7.38;;;64.70;2201.60;;;;;;5098366;28;20028;-67
2020/12/01 04:03:46;;;;;;;14.20;8.05;;;64.60;2201.60;;;;;;5098471;28;20059;-68
2020/12/01 04:06:12;;;;;;;19.20;8.27;;;64.50;2201.60;;;;;;5098522;28;20390;-70
2020/12/01 04:08:38;;;;;;;16.05;7.18;;;64.50;2201.60;;;;;;5098842;28;20023;-68
2020/12/01 04:11:05;;;;;;;15.00;7.30;;;64.50;2201.60;;;;;;5098645;28;20027;-69
2020/12/01 04:13:33;;;;;;;13.38;6.80;;;64.60;2201.60;;;;;;5098338;28;20034;-69
2020/12/01 04:15:59;;;;;;;14.25;7.22;;;64.60;2201.60;;;;;;5098233;28;20169;-69
2020/12/01 04:18:25;;;;;;;12.40;6.78;;;64.60;2201.60;;;;;;5098118;28;20023;-68
2020/12/01 04:20:51;;;;;;;14.98;6.40;;;64.60;2201.60;;;;;;5098303;28;20027;-68
2020/12/01 04:23:17;;;;;;;13.82;7.35;;;64.80;2201.60;;;;;;5098392;28;20040;-69
2020/12/01 04:25:42;;;;;;;13.07;7.05;;;64.70;2201.60;;;;;;5098577;28;20104;-68
2020/12/01 04:28:08;;;;;;;17.42;6.60;;;64.50;2201.60;;;;;;5097571;28;20052;-69
2020/12/01 04:30:34;;;;;;;16.10;8.25;;;64.60;2201.60;;;;;;5097942;28;20447;-69
2020/12/01 04:33:00;;;;;;;13.98;6.90;;;64.70;2201.60;;;;;;5098116;28;20019;-68
2020/12/01 04:35:26;;;;;;;14.50;6.65;;;64.60;2201.60;;;;;;5097949;28;20059;-67
2020/12/01 04:37:57;;;;;;;18.00;9.10;;;64.70;2201.60;;;;;;5098133;28;20024;-67
2020/12/01 04:40:29;;;;;;;23.30;11.98;;;64.60;2201.60;;;;;;5097720;28;20020;-70
2020/12/01 04:43:25;;;;;;;24.35;14.95;;;64.70;2201.60;;;;;;5097708;28;20413;-69
2020/12/01 04:45:51;;;;;;;16.58;9.63;;;64.70;2201.60;;;;;;5094578;28;20509;-69
2020/12/01 04:48:52;;;;;;;21.23;12.27;;;64.80;2201.60;;;;;;5097782;28;20114;-70
2020/12/01 04:51:47;;;;;;;15.75;7.82;;;64.70;2201.60;;;;;;5070920;28;20038;-69
2020/12/01 04:54:15;;;;;;;15.20;7.40;;;64.70;2201.60;;;;;;5097965;28;20043;-68
2020/12/01 04:57:27;;;;;;;16.23;7.13;;;64.80;2201.60;;;;;;5097718;28;20149;-69
2020/12/01 05:00:00;;;;;;;15.32;7.13;;;64.80;2201.60;;;;;;5066036;28;20047;-69
2020/12/01 05:02:41;;;;;;;17.20;8.52;;;64.70;2201.60;;;;;;5097429;28;20036;-68
2020/12/01 05:05:57;;;;;;;14.73;7.38;;;64.80;2201.60;;;;;;5097766;28;20020;-70
2020/12/01 05:08:53;;;;;;;12.80;6.72;;;64.70;2201.60;;;;;;5096993;28;20399;-70
2020/12/01 05:11:38;;;;;;;13.50;7.38;;;64.70;2201.60;;;;;;5097589;28;20027;-67
2020/12/01 05:14:14;;;;;;;14.45;6.72;;;64.70;2201.60;;;;;;5097599;28;20020;-68
2020/12/01 05:16:48;;;;;;;15.00;6.93;;;64.80;2201.60;;;;;;5097154;28;20049;-69
2020/12/01 05:19:26;;;;;;;13.95;7.13;;;64.80;2201.60;;;;;;5096889;28;20340;-69
2020/12/01 05:21:51;;;;;;;17.33;7.55;;;64.80;2201.60;;;;;;5097307;28;20044;-68
2020/12/01 05:24:17;;;;;;;13.60;7.32;;;64.70;2201.60;;;;;;5097554;28;20036;-69
2020/12/01 05:26:43;;;;;;;16.67;8.13;;;64.80;2201.60;;;;;;5097432;28;20027;-68
2020/12/01 05:29:26;;;;;;;13.93;7.18;;;64.80;2201.60;;;;;;5097286;28;20043;-70
2020/12/01 05:31:52;;;;;;;15.73;7.47;;;64.80;2201.60;;;;;;5097368;28;20055;-69
2020/12/01 05:34:20;;;;;;;13.43;7.35;;;64.70;2201.60;;;;;;5097099;28;20408;-68
2020/12/01 05:36:46;;;;;;;16.67;8.60;;;64.70;2201.60;;;;;;5097467;28;20034;-68
2020/12/01 05:39:24;;;;;;;15.93;7.88;;;64.60;2201.60;;;;;;5100071;28;20024;-67
2020/12/01 05:42:05;;;;;;;16.40;8.23;;;64.50;2201.60;;;;;;5101190;28;20126;-69
2020/12/01 05:44:33;;;;;;;15.43;7.47;;;64.50;2201.60;;;;;;5101267;28;20105;-71
2020/12/01 05:47:16;;;;;;;17.92;8.02;;;64.30;2201.60;;;;;;5101426;28;20030;-70
2020/12/01 05:50:02;;;;;;;18.17;8.80;;;64.40;2201.60;;;;;;5101198;28;20067;-69
2020/12/01 05:52:31;;;;;;;25.10;10.35;;;64.50;2201.60;;;;;;5101203;28;20027;-69
2020/12/01 05:55:14;;;;;;;17.20;8.13;;;64.30;2201.60;;;;;;5101206;28;20027;-68
2020/12/01 05:57:40;;;;;;;19.50;8.43;;;64.40;2201.60;;;;;;5101107;28;20020;-69
2020/12/01 06:00:09;;;;;;;13.35;7.00;;;64.60;2201.60;;;;;;5101070;28;20024;-70
2020/12/01 06:02:53;;;;;;;14.70;7.30;;;64.70;2201.60;;;;;;5101124;28;20123;-69
2020/12/01 06:05:23;;;;;;;14.20;7.85;;;64.70;2201.60;;;;;;5101216;28;20019;-67
2020/12/01 06:07:51;;;;;;;33.22;15.38;;;64.60;2201.60;;;;;;5100759;28;20403;-70
2020/12/01 06:10:22;;;;;;;25.65;12.52;;;64.50;2201.60;;;;;;5100909;28;20080;-68
2020/12/01 06:13:05;;;;;;;24.48;12.63;;;64.60;2201.60;;;;;;5100990;28;20376;-69
2020/12/01 06:15:33;;;;;;;18.02;9.88;;;64.50;2201.60;;;;;;5100919;28;20020;-70
2020/12/01 06:18:25;;;;;;;16.23;8.70;;;64.30;2201.60;;;;;;5101046;28;20020;-70
2020/12/01 06:21:04;;;;;;;21.88;11.10;;;64.00;2201.60;;;;;;5100193;28;20024;-70
2020/12/01 06:23:32;;;;;;;;;;;64.10;2201.60;;;;;;5100844;28;20032;-70
2020/12/01 06:26:13;;;;;;;23.90;13.65;;;39.20;2201.60;;;;;;5100234;28;19904;-69
2020/12/01 06:28:53;;;;;;;25.52;14.98;;;39.10;2201.60;;;;;;5100634;28;20028;-71
2020/12/01 06:31:48;;;;;;;28.23;17.70;;;38.80;2201.60;;;;;;5100526;28;20028;-69
2020/12/01 06:34:47;;;;;;;65.22;30.65;;;38.50;2201.60;;;;;;5100092;28;20024;-70
2020/12/01 06:37:23;;;;;;;61.15;29.85;;;38.50;2201.60;;;;;;5100490;28;20024;-70
2020/12/01 06:40:01;;;;;;;74.47;37.00;;;38.50;2201.60;;;;;;5100547;28;20071;-68
2020/12/01 06:42:29;;;;;;;99.20;52.53;;;38.50;2201.60;;;;;;5100523;28;20301;-71
2020/12/01 06:45:03;;;;;;;112.30;52.58;;;38.50;2201.60;;;;;;5099777;28;20028;-71
2020/12/01 06:47:32;;;;;;;216.48;106.43;;;38.40;2201.60;;;;;;5099826;28;20028;-70
2020/12/01 06:49:59;;;;;;;;;;;13.70;2201.60;;;;;;5099698;28;20048;-73
2020/12/01 06:52:26;;;;;;;26.65;14.73;;;13.50;2201.60;;;;;;5100692;28;19911;-69
2020/12/01 06:54:55;;;;;;;22.17;12.15;;;13.50;2201.60;;;;;;5120374;27;20352;-73
2020/12/01 06:57:38;;;;;;;20.98;11.07;;;13.40;2176.00;;;;;;5118294;28;20030;-71
2020/12/01 07:00:28;;;;;;;18.27;10.68;;;13.40;2201.60;;;;;;5119972;28;20023;-70
2020/12/01 07:02:54;;;;;;;19.83;11.00;;;13.20;2176.00;;;;;;5119494;28;20512;-72
2020/12/01 07:05:31;;;;;;;21.27;11.25;;;13.00;2150.40;;;;;;5120111;27;20111;-72
2020/12/01 07:07:57;;;;;;;20.05;10.48;;;13.00;2176.00;;;;;;5119571;28;20392;-72
2020/12/01 07:10:32;;;;;;;19.75;9.57;;;0.00;2150.40;;;;;;5119744;28;20058;-71
2020/12/01 07:13:29;;;;;;;18.67;9.93;;;0.10;2150.40;;;;;;5119614;28;20023;-73
2020/12/01 07:16:07;;;;;;;22.60;11.35;;;0.10;2150.40;;;;;;5124695;27;20327;-69
2020/12/01 07:18:32;;;;;;;24.27;11.97;;;0.50;2124.80;;;;;;5138992;27;20391;-69
2020/12/01 07:21:23;;;;;;;22.15;12.55;;;0.40;2124.80;;;;;;5139872;27;20058;-70
2020/12/01 07:24:13;;;;;;;23.05;12.73;;;0.50;2099.20;;;;;;5140207;27;20038;-68
2020/12/01 07:26:52;;;;;;;28.80;13.85;;;0.80;2099.20;;;;;;5140222;27;20407;-68
2020/12/01 07:29:33;;;;;;;25.27;14.55;;;0.80;2099.20;;;;;;5099436;28;20020;-68
2020/12/01 07:32:15;;;;;;;27.95;15.90;;;25.60;2073.60;;;;;;5099190;28;20050;-69
2020/12/01 07:34:41;;;;;;;32.70;16.17;;;25.60;2099.20;;;;;;5099320;28;20067;-71
2020/12/01 07:37:30;;;;;;;23.65;13.48;;;25.70;2073.60;;;;;;5105521;27;20116;-71
2020/12/01 07:40:00;;;;;;;26.30;16.23;;;25.70;2099.20;;;;;;5118861;28;20341;-71
2020/12/01 07:42:29;;;;;;;24.08;11.88;;;25.70;2099.20;;;;;;5119354;28;20437;-71
2020/12/01 07:44:56;;;;;;;;;;;0.80;2150.40;;;;;;5119388;28;20019;-72
2020/12/01 07:47:27;;;;;;;24.23;12.15;;;0.80;2150.40;;;;;;5119388;28;19946;-70
2020/12/01 07:50:13;;;;;;;25.35;11.32;;;0.90;2150.40;;;;;;5112940;28;20108;-72
2020/12/01 07:52:42;;;;;;;24.95;12.25;;;0.80;2176.00;;;;;;5098374;28;20396;-71
2020/12/01 07:55:29;;;;;;;22.33;12.13;;;25.60;2150.40;;;;;;5134126;27;20076;-71
2020/12/01 07:58:19;;;;;;;28.58;14.88;;;25.60;2150.40;;;;;;5139774;27;20023;-69
2020/12/01 08:01:17;;;;;;;27.08;15.88;;;26.00;2124.80;;;;;;5138474;27;20036;-71
2020/12/01 08:03:43;;;;;;;22.15;12.15;;;26.20;2073.60;;;;;;5139565;27;20121;-69
2020/12/01 08:06:15;;;;;;;23.92;13.23;;;26.20;2099.20;;;;;;5139621;27;20376;-68
2020/12/01 08:08:45;;;;;;;26.05;12.07;;;26.40;2073.60;;;;;;5139053;27;20034;-70
2020/12/01 08:11:14;;;;;;;26.13;13.88;;;26.30;2099.20;;;;;;5139059;27;20440;-71
2020/12/01 08:13:42;;;;;;;23.48;12.57;;;26.50;2073.60;;;;;;5138905;27;20031;-70
2020/12/01 08:16:17;;;;;;;24.33;12.57;;;51.20;2124.80;;;;;;5139259;27;20019;-69
2020/12/01 08:18:48;;;;;;;21.95;11.82;;;51.30;2099.20;;;;;;5138892;27;20023;-70
2020/12/01 08:21:31;;;;;;;23.48;12.73;;;51.40;2073.60;;;;;;5137632;27;20042;-68
2020/12/01 08:24:02;;;;;;;24.50;11.90;;;51.40;2073.60;;;;;;5139028;27;20042;-69
2020/12/01 08:26:31;;;;;;;25.77;12.73;;;51.70;2073.60;;;;;;5138860;27;20019;-72
2020/12/01 08:29:17;;;;;;;26.67;12.93;;;51.60;2073.60;;;;;;5138486;27;20027;-70
2020/12/01 08:32:23;;;;;;;25.63;14.15;;;51.70;2048.00;;;;;;5139145;27;20023;-70
2020/12/01 08:34:52;;;;;;;36.88;17.67;;;51.80;2022.40;;;;;;5138606;27;20023;-69
2020/12/01 08:37:32;;;;;;;;;;;52.00;2022.40;;;;;;5139182;27;20301;-70
2020/12/01 08:40:07;;;;;;;34.42;15.70;;;52.10;2022.40;;;;;;5137995;27;20262;-71
2020/12/01 08:43:14;;;;;;;30.17;15.20;;;51.90;2022.40;;;;;;5138248;27;20035;-69
2020/12/01 08:45:43;;;;;;;29.90;16.58;;;52.10;2022.40;;;;;;5138771;27;20030;-70
2020/12/01 08:48:22;;;;;;;41.47;19.17;;;76.80;1996.80;;;;;;5138496;27;20023;-68
2020/12/01 08:50:55;;;;;;;24.85;14.50;;;76.80;1971.20;;;;;;5138403;27;20037;-70
2020/12/01 08:53:22;;;;;;;28.05;14.82;;;76.80;1971.20;;;;;;5136719;27;20035;-69
2020/12/01 08:55:53;;;;;;;29.85;13.85;;;76.90;1971.20;;;;;;5117251;28;20030;-70
2020/12/01 08:58:24;;;;;;;21.67;12.88;;;77.00;1971.20;;;;;;5117890;28;20024;-68
2020/12/01 09:01:04;;;;;;;26.98;13.32;;;77.00;1971.20;;;;;;5117518;28;20047;-68
2020/12/01 09:03:31;;;;;;;26.05;12.82;;;77.10;1971.20;;;;;;5129937;27;20313;-70
2020/12/01 09:05:58;;;;;;;21.95;12.15;;;77.00;1945.60;;;;;;5138314;27;20027;-70
2020/12/01 09:11:47;;;;;;;21.23;11.25;;;77.00;1945.60;;;;;;5138066;27;20030;-68
2020/12/01 09:14:18;;;;;;;22.73;11.02;;;77.10;1945.60;;;;;;5136909;27;20073;-70
2020/12/01 09:17:00;;;;;;;20.85;11.15;;;77.10;1920.00;;;;;;5137866;27;20023;-70
2020/12/01 09:22:10;;;;;;;29.95;14.15;;;76.90;1945.60;;;;;;5136081;27;20463;-70
2020/12/01 09:24:36;;;;;;;54.97;27.40;;;76.80;1945.60;;;;;;5138012;27;20047;-70
2020/12/01 09:27:09;;;;;;;40.28;25.55;;;76.80;1945.60;;;;;;5138160;27;20023;-70
2020/12/01 09:29:35;;;;;;;36.90;20.50;;;76.90;1945.60;;;;;;5137910;28;20031;-70
2020/12/01 09:32:05;;;;;;;32.03;16.33;;;76.90;1945.60;;;;;;5136037;28;20027;-70
2020/12/01 09:34:33;;;;;;;31.55;14.77;;;77.00;1920.00;;;;;;5117122;28;20023;-70
2020/12/01 09:37:03;;;;;;;30.05;16.70;;;76.90;1920.00;;;;;;5116918;28;20024;-71
2020/12/01 09:39:31;;;;;;;31.90;15.68;;;76.80;1920.00;;;;;;5117266;28;20035;-72
2020/12/01 09:42:11;;;;;;;26.08;13.65;;;76.80;1920.00;;;;;;5117460;28;20027;-72
2020/12/01 09:47:14;;;;;;;25.92;13.43;;;52.00;1945.60;;;;;;5136812;28;20022;-72
2020/12/01 09:49:40;;;;;;;25.75;13.85;;;52.00;1945.60;;;;;;5137116;28;20376;-72
2020/12/01 09:52:19;;;;;;;30.45;15.13;;;51.90;1945.60;;;;;;5137288;28;20164;-71
2020/12/01 09:55:02;;;;;;;32.67;14.52;;;51.90;1945.60;;;;;;5137437;28;20034;-71
2020/12/01 10:26:23;;;;;;;24.13;13.73;;;77.30;1868.80;;;;;;5139272;27;20034;-71
2020/12/01 10:34:30;;;;;;;29.40;14.57;;;77.70;1817.60;;;;;;5095841;28;20032;-71
2020/12/01 10:36:56;;;;;;;30.83;17.00;;;77.60;1817.60;;;;;;5120752;28;20110;-71
2020/12/01 10:39:24;;;;;;;31.50;18.27;;;77.70;1817.60;;;;;;5120229;28;20106;-69
2020/12/01 10:41:50;;;;;;;33.35;19.42;;;102.50;1792.00;;;;;;5120362;28;20034;-72
2020/12/01 10:44:18;;;;;;;30.20;16.60;;;102.50;1766.40;;;;;;5120069;28;20016;-71
2020/12/01 10:46:48;;;;;;;28.40;15.10;;;102.50;1792.00;;;;;;5118996;28;20026;-71
2020/12/01 10:49:15;;;;;;;30.42;15.57;;;102.50;1766.40;;;;;;5119691;28;20375;-72
2020/12/01 10:51:41;;;;;;;30.00;15.93;;;102.40;1766.40;;;;;;5119976;28;20024;-72
2020/12/01 10:54:07;;;;;;;36.00;14.77;;;102.70;1766.40;;;;;;5120492;28;20023;-72
2020/12/01 10:56:33;;;;;;;31.02;14.35;;;102.70;1740.80;;;;;;5119981;28;20055;-71
2020/12/01 10:58:59;;;;;;;32.08;15.38;;;103.00;1715.20;;;;;;5119772;28;20058;-71
2020/12/01 11:01:24;;;;;;;25.15;12.90;;;102.80;1766.40;;;;;;5120200;28;20027;-72
2020/12/01 11:03:50;;;;;;;24.40;13.70;;;103.20;1689.60;;;;;;5119779;28;20084;-71
2020/12/01 11:06:16;;;;;;;25.08;12.52;;;128.10;1715.20;;;;;;5120146;27;20112;-71
2020/12/01 11:08:42;;;;;;;27.05;14.07;;;128.40;1638.40;;;;;;5119289;28;20096;-71
2020/12/01 11:11:07;;;;;;;27.25;13.80;;;128.70;1664.00;;;;;;5120697;27;20059;-72
2020/12/01 11:13:33;;;;;;;31.30;14.80;;;128.40;1664.00;;;;;;5119662;28;20023;-71
2020/12/01 11:15:59;;;;;;;26.35;13.25;;;103.30;1689.60;;;;;;5119689;28;20050;-71
2020/12/01 11:18:25;;;;;;;25.52;13.63;;;103.30;1689.60;;;;;;5119804;28;20023;-71
2020/12/01 11:20:50;;;;;;;35.80;16.02;;;128.20;1664.00;;;;;;5119158;28;20062;-72
2020/12/01 11:23:16;;;;;;;29.85;12.80;;;128.60;1638.40;;;;;;5118500;27;20114;-70
2020/12/01 11:25:42;;;;;;;31.55;16.00;;;128.40;1664.00;;;;;;5119704;28;20035;-71
2020/12/01 11:28:08;;;;;;;25.95;15.27;;;153.80;1587.20;;;;;;5119774;28;20306;-71
2020/12/01 11:30:34;;;;;;;21.05;14.32;;;153.90;1561.60;;;;;;5119433;28;20027;-71
2020/12/01 11:32:59;;;;;;;19.75;11.18;;;154.20;1561.60;;;;;;5118870;28;20019;-73
2020/12/01 11:35:25;;;;;;;31.63;15.18;;;153.70;1561.60;;;;;;5118679;28;20410;-72
2020/12/01 11:37:52;;;;;;;31.80;15.27;;;153.60;1587.20;;;;;;5118504;28;20026;-73
2020/12/01 11:40:18;;;;;;;26.25;13.82;;;154.10;1561.60;;;;;;5119360;28;20036;-73
2020/12/01 11:42:44;;;;;;;22.25;12.02;;;154.40;1510.40;;;;;;5119156;28;20028;-75
2020/12/01 11:45:11;;;;;;;25.27;12.25;;;154.40;1510.40;;;;;;5118821;28;20038;-73
2020/12/01 11:47:37;;;;;;;54.80;30.00;;;179.60;1459.20;;;;;;5119233;28;20417;-72
2020/12/01 11:50:06;;;;;;;36.17;13.15;;;179.80;1433.60;;;;;;5118975;28;20027;-73
2020/12/01 11:52:32;;;;;;;25.02;13.05;;;179.90;1433.60;;;;;;5119294;28;20019;-71
2020/12/01 11:54:57;;;;;;;38.30;13.68;;;179.90;1433.60;;;;;;5136897;27;20080;-72
2020/12/01 11:57:23;;;;;;;19.58;11.55;;;204.90;1382.40;;;;;;5139441;27;20030;-71
2020/12/01 11:59:49;;;;;;;25.42;13.40;;;204.90;1356.80;;;;;;5138522;27;20023;-71
2020/12/01 12:02:15;;;;;;;27.45;13.15;;;205.20;1356.80;;;;;;5139093;27;20038;-72
2020/12/01 12:04:40;;;;;;;26.63;12.50;;;205.20;1331.20;;;;;;5139152;27;20023;-71
2020/12/01 12:07:06;;;;;;;30.35;16.58;;;205.20;1356.80;;;;;;5138123;27;20031;-71
2020/12/01 12:09:32;;;;;;;23.23;13.45;;;205.40;1331.20;;;;;;5138780;27;20049;-71
2020/12/01 12:11:58;;;;;;;22.25;12.65;;;205.60;1331.20;;;;;;5125961;27;20032;-72
2020/12/01 12:14:23;;;;;;;29.23;15.70;;;205.60;1305.60;;;;;;5098048;28;20028;-72
2020/12/01 12:16:49;;;;;;;25.95;16.17;;;205.50;1305.60;;;;;;5097410;28;20099;-71
2020/12/01 12:19:15;;;;;;;25.08;14.90;;;205.50;1305.60;;;;;;5098226;28;20024;-71
2020/12/01 12:21:41;;;;;;;23.10;12.65;;;205.70;1280.00;;;;;;5097746;28;20097;-71
2020/12/01 12:24:06;;;;;;;23.10;13.00;;;230.60;1280.00;;;;;;5098316;28;20027;-71
2020/12/01 12:26:32;;;;;;;24.05;13.00;;;230.90;1254.40;;;;;;5097671;28;20035;-71
2020/12/01 12:28:58;;;;;;;33.88;14.27;;;231.00;1228.80;;;;;;5097132;28;20166;-71
2020/12/01 12:31:24;;;;;;;29.58;13.32;;;231.10;1228.80;;;;;;5098167;28;20035;-71
2020/12/01 12:33:50;;;;;;;23.90;13.77;;;231.20;1228.80;;;;;;5097536;28;20024;-71
2020/12/01 12:36:16;;;;;;;23.73;13.52;;;256.40;1203.20;;;;;;5106062;27;20313;-71
2020/12/01 12:38:42;;;;;;;32.85;15.48;;;256.30;1177.60;;;;;;5118273;28;20312;-71
2020/12/01 12:41:08;;;;;;;29.42;16.13;;;256.90;1152.00;;;;;;5117910;28;20028;-71
2020/12/01 12:43:34;;;;;;;26.90;15.20;;;281.70;1152.00;;;;;;5117880;28;20023;-71
2020/12/01 12:46:00;;;;;;;24.65;14.57;;;256.90;1152.00;;;;;;5118521;27;20032;-71
2020/12/01 12:48:28;;;;;;;25.48;14.68;;;281.70;1152.00;;;;;;5117389;28;20381;-71
2020/12/01 12:50:54;;;;;;;24.65;14.82;;;256.50;1177.60;;;;;;5118158;28;20442;-71
2020/12/01 12:53:21;;;;;;;29.00;14.63;;;256.30;1177.60;;;;;;5117710;28;20399;-71
2020/12/01 12:55:47;;;;;;;26.02;14.88;;;256.70;1177.60;;;;;;5117863;28;20028;-71
2020/12/01 12:58:13;;;;;;;24.10;14.30;;;256.50;1177.60;;;;;;5117441;28;20374;-71
2020/12/01 13:00:38;;;;;;;30.85;16.58;;;256.20;1203.20;;;;;;5117172;28;20028;-71
2020/12/01 13:03:04;;;;;;;27.80;15.38;;;256.20;1203.20;;;;;;5117435;28;20034;-71
2020/12/01 13:05:30;;;;;;;26.20;15.38;;;256.00;1203.20;;;;;;5117681;28;20405;-71
2020/12/01 13:07:57;;;;;;;25.00;14.25;;;231.30;1203.20;;;;;;5117576;28;20153;-71
2020/12/01 13:10:23;;;;;;;22.77;13.20;;;256.20;1203.20;;;;;;5117833;28;20028;-71